Flight Track Log - Related Links

Times and Time Zones

All times are in EDT time to prevent confusion due to time zone crossing. See the OPT330 flight status page for this flight to view local times or setup timezone preferences in your user account.

Time Position Orientation Groundspeed Altitude Reporting Facility
EDT Latitude Longitude Course Direction KTS MPH feet Rate Location/Type
Sat 02:52:05 PM 33.6091 -112.2531 253° West 234 269 17,900  Level FlightAware ADS-B
Sat 02:53:04 PM 33.5868 -112.3353 253° West 291 335 20,000 1,973 Climbing FlightAware ADS-B
Sat 02:53:18 PM 33.5840 -112.3460 253° West 297 342 20,300 1,059 Climbing FlightAware ADS-B
Sat 02:53:21 PM 33.5804 -112.3601 252° West 297 342 20,300 727 Level FlightAware ADS-B
Sat 02:53:51 PM 33.5692 -112.4009 254° West 303 349 20,700 1,200 Climbing FlightAware ADS-B (VRMM / MLE)
Sat 02:54:21 PM 33.5558 -112.4504 252° West 308 354 21,500 1,600 Climbing FlightAware ADS-B (VRMM / MLE)
Sat 02:54:51 PM 33.5422 -112.5005 252° West 310 357 22,300 2,032 Climbing FlightAware ADS-B (VRMM / MLE)
Sat 02:55:23 PM 33.5284 -112.5508 254° West 296 341 23,600 2,500 Climbing FlightAware ADS-B (VRMM / MLE)
Sat 02:55:27 PM 33.5291 -112.5485 252° West 299 344 23,800 1,200 Climbing FlightAware ADS-B
Sat 02:56:03 PM 33.5108 -112.6155 252° West 317 365 24,400 1,091 Climbing FlightAware ADS-B (VRMM / MLE)
Sat 02:56:33 PM 33.4970 -112.6661 252° West 330 380 25,000 545 Climbing FlightAware ADS-B (VRMM / MLE)
Sat 02:57:09 PM 33.4799 -112.7284 252° West 320 368 25,000  Level FlightAware ADS-B (VRMM / MLE)
Sat 02:57:39 PM 33.4661 -112.7786 252° West 317 365 25,000  Level FlightAware ADS-B (VRMM / MLE)
Sat 02:58:10 PM 33.4567 -112.8321 270° West 315 362 25,000  Level FlightAware ADS-B (VRMM / MLE)
Sat 02:58:17 PM 33.4569 -112.8368 258° West 315 362 25,000  Level FlightAware ADS-B
Sat 02:58:21 PM 33.4583 -112.8491 280° West 316 364 25,000  Level FlightAware ADS-B (VRMM / MLE)
Sat 02:58:57 PM 33.4687 -112.8982 283° West 315 362 25,000 250 Level FlightAware ADS-B
Sat 02:59:09 PM 33.4749 -112.9324 283° West 315 362 25,200 1,535 Climbing FlightAware ADS-B (YBLN / BQB)
Sat 02:59:40 PM 33.4816 -112.9690 282° West 316 364 26,100 1,902 Climbing FlightAware ADS-B
Sat 02:59:50 PM 33.4865 -112.9955 283° West 324 373 26,500 2,226 Climbing FlightAware ADS-B
Sat 03:00:42 PM 33.5050 -113.0929 283° West 314 361 28,400 2,276 Climbing FlightAware ADS-B (VRMM / MLE)
Sat 03:01:17 PM 33.5160 -113.1505 283° West 310 357 29,800 2,400 Climbing FlightAware ADS-B (VRMM / MLE)
Sat 03:01:57 PM 33.5288 -113.2173 283° West 304 350 31,400 1,808 Climbing FlightAware ADS-B (VRMM / MLE)
Sat 03:02:30 PM 33.5392 -113.2724 283° West 320 368 32,000 500 Climbing FlightAware ADS-B (VRMM / MLE)
Sat 03:03:09 PM 33.5523 -113.3415 281° West 324 373 32,000  Level FlightAware ADS-B (VRMM / MLE)
Sat 03:04:30 PM 33.5788 -113.4822 281° West 322 371 32,000  Level FlightAware ADS-B (VRMM / MLE)
Sat 03:05:34 PM 33.5953 -113.5681 281° West 319 367 32,000  Level Albuquerque Center
Sat 03:06:36 PM 33.6147 -113.6714 283° West 312 359 32,000  Level Albuquerque Center
Sat 03:07:37 PM 33.6325 -113.7689 282° West 307 353 32,000  Level Albuquerque Center
Sat 03:13:50 PM 33.7114 -114.4010 276° West 310 357 32,000  Level FlightAware ADS-B (EPLL / LCJ)
Sat 03:14:24 PM 33.7165 -114.4592 276° West 311 358 32,000  Level FlightAware ADS-B (EPLL / LCJ)
Sat 03:14:58 PM 33.7214 -114.5170 276° West 309 356 32,000  Level FlightAware ADS-B (EPLL / LCJ)
Sat 03:16:51 PM 33.7379 -114.7104 276° West 310 357 32,000  Level FlightAware ADS-B (EPLL / LCJ)
Sat 03:19:38 PM 33.7621 -115.0034 274° West 314 361 32,000  Level FlightAware ADS-B (EPLL / LCJ)
Sat 03:20:44 PM 33.7714 -115.1183 274° West 313 360 32,000  Level FlightAware ADS-B (EPLL / LCJ)
Sat 03:22:18 PM 33.7845 -115.2811 274° West 313 360 32,000  Level FlightAware ADS-B (EPLL / LCJ)
Sat 03:24:39 PM 33.8034 -115.5227 274° West 308 354 32,000  Level FlightAware ADS-B (EPLL / LCJ)
Sat 03:25:09 PM 33.8074 -115.5750 274° West 306 352 32,000  Level FlightAware ADS-B (EPLL / LCJ)
Sat 03:26:26 PM 33.8172 -115.7039 274° West 307 353 32,000  Level FlightAware ADS-B (EPLL / LCJ)
Sat 03:27:36 PM 33.8262 -115.8235 274° West 308 354 32,000  Level FlightAware ADS-B (EPLL / LCJ)
Sat 03:28:16 PM 33.8307 -115.8835 275° West 309 356 32,000 -247 Level FlightAware ADS-B
Sat 03:28:49 PM 33.8347 -115.9364 275° West 311 358 31,700 -1,100 Descending FlightAware ADS-B (KBNG)
Sat 03:29:16 PM 33.8391 -115.9955 273° West 311 358 30,900 -1,714 Descending FlightAware ADS-B (KBNG)
Sat 03:29:52 PM 33.8432 -116.0551 275° West 298 343 29,900 -1,765 Descending FlightAware ADS-B (KBNG)
Sat 03:30:24 PM 33.8467 -116.1053 275° West 282 325 28,900 -1,839 Descending FlightAware ADS-B (KBNG)
Sat 03:30:54 PM 33.8500 -116.1514 275° West 271 312 28,000 -1,900 Descending FlightAware ADS-B (KBNG)
Sat 03:31:24 PM 33.8532 -116.1956 275° West 261 300 27,000 -1,810 Descending FlightAware ADS-B
Sat 03:31:57 PM 33.8561 -116.2359 275° West 248 285 26,100 -1,714 Descending FlightAware ADS-B (KBNG)
Sat 03:32:27 PM 33.8592 -116.2780 275° West 247 284 25,200 -1,650 Descending FlightAware ADS-B
Sat 03:33:17 PM 33.8647 -116.3522 275° West 252 290 23,900 -1,533 Descending FlightAware ADS-B (KBNG)
Sat 03:33:57 PM 33.8685 -116.4060 275° West 255 293 22,900 -1,644 Descending FlightAware ADS-B
Sat 03:34:30 PM 33.8706 -116.4371 273° West 258 297 21,900 -1,737 Descending FlightAware ADS-B (KBNG)
Sat 03:34:35 PM 33.8719 -116.4606 273° West 259 298 21,800 -1,756 Descending FlightAware ADS-B
Sat 03:35:11 PM 33.8741 -116.5132 273° West 258 297 20,700 -1,714 Descending FlightAware ADS-B (KBNG)
Sat 03:35:45 PM 33.8764 -116.5626 273° West 255 293 19,800 -1,569 Descending FlightAware ADS-B
Sat 03:36:16 PM 33.8783 -116.6027 273° West 252 290 19,000 -1,727 Descending FlightAware ADS-B
Sat 03:36:51 PM 33.8805 -116.6496 273° West 251 289 17,900 -1,818 Descending FlightAware ADS-B
Sat 03:37:22 PM 33.8828 -116.6988 273° West 253 291 17,000 -1,645 Descending FlightAware ADS-B (KBNG)
Sat 03:37:53 PM 33.8846 -116.7386 273° West 256 295 16,200 -1,672 Descending FlightAware ADS-B (KBNG)
Sat 03:38:23 PM 33.8868 -116.7863 273° West 257 296 15,300 -1,742 Descending FlightAware ADS-B (KBNG)
Sat 03:38:55 PM 33.8887 -116.8293 273° West 254 292 14,400 -1,529 Descending FlightAware ADS-B
Sat 03:39:14 PM 33.8870 -116.8556 255° West 263 303 14,000 -600 Descending FlightAware ADS-B (KBNG)
Sat 03:39:35 PM 33.8770 -116.8872 250° West 263 303 14,000  Level FlightAware ADS-B
Sat 03:39:44 PM 33.8752 -116.8993 261° West 255 293 14,000  Level FlightAware ADS-B (KBNG)
Sat 03:40:15 PM 33.8692 -116.9403 259° West 259 298 14,000 -492 Level FlightAware ADS-B
Sat 03:40:45 PM 33.8622 -116.9839 259° West 251 289 13,500 -1,279 Descending FlightAware ADS-B
Sat 03:41:16 PM 33.8555 -117.0252 259° West 234 269 12,700 -1,452 Descending FlightAware ADS-B
Sat 03:41:47 PM 33.8493 -117.0647 259° West 224 258 12,000 -1,452 Descending FlightAware ADS-B
Sat 03:42:18 PM 33.8437 -117.1001 259° West 221 254 11,200 -1,629 Descending FlightAware ADS-B
Sat 03:42:57 PM 33.8357 -117.1502 259° West 231 266 10,100 -973 Descending FlightAware ADS-B (KBNG)
Sat 03:43:32 PM 33.8285 -117.1952 259° West 245 282 10,000 -85 Descending FlightAware ADS-B (KBNG)
Sat 03:44:08 PM 33.8210 -117.2424 259° West 250 288 10,000  Level FlightAware ADS-B
Sat 03:44:43 PM 33.8139 -117.2861 259° West 243 280 10,000  Level FlightAware ADS-B
Sat 03:45:11 PM 33.8127 -117.2934 260° West 242 278 10,000  Level FlightAware ADS-B
Sat 03:45:26 PM 33.8046 -117.3437 259° West 236 272 10,000 -462 Level FlightAware ADS-B
Sat 03:46:03 PM 33.7968 -117.3921 259° West 240 276 9,600 -600 Descending FlightAware ADS-B
Sat 03:46:06 PM 33.7957 -117.3986 260° West 239 275 9,600 -1,091 Level FlightAware ADS-B
Sat 03:46:25 PM 33.7915 -117.4243 259° West 234 269 9,200 -1,200 Descending FlightAware ADS-B
Sat 03:46:26 PM 33.7918 -117.4229 259° West 234 269 9,200 -1,125 Level FlightAware ADS-B
Sat 03:46:41 PM 33.7882 -117.4444 260° West 231 266 8,900 -1,059 Descending FlightAware ADS-B
Sat 03:46:43 PM 33.7882 -117.4444 259° West 230 265 8,900 -1,200 Level FlightAware ADS-B
Sat 03:46:56 PM 33.7851 -117.4631 260° West 234 269 8,600 -1,091 Descending FlightAware ADS-B
Sat 03:47:05 PM 33.7842 -117.4693 260° West 239 275 8,500 -1,286 Descending FlightAware ADS-B
Sat 03:47:10 PM 33.7823 -117.4816 260° West 242 278 8,300 -1,364 Descending FlightAware ADS-B
Sat 03:47:27 PM 33.7798 -117.5026 264° West 244 281 8,000 -857 Descending FlightAware ADS-B
Sat 03:47:31 PM 33.7790 -117.5106 264° West 238 274 8,000 -900 Level FlightAware ADS-B
Sat 03:47:47 PM 33.7771 -117.5295 264° West 219 252 7,700 -1,333 Descending FlightAware ADS-B
Sat 03:47:49 PM 33.7772 -117.5291 263° West 217 250 7,600 -1,714 Descending FlightAware ADS-B
Sat 03:48:01 PM 33.7754 -117.5469 264° West 204 235 7,300 -1,333 Descending FlightAware ADS-B
Sat 03:48:16 PM 33.7740 -117.5631 269° West 204 235 7,000 -1,200 Descending FlightAware ADS-B
Sat 03:48:21 PM 33.7745 -117.5696 276° West 203 234 6,900 -1,385 Descending FlightAware ADS-B
Sat 03:48:29 PM 33.7756 -117.5774 280° West 202 232 6,700 -1,286 Descending FlightAware ADS-B
Sat 03:48:35 PM 33.7766 -117.5841 281° West 200 230 6,600 -316 Descending FlightAware ADS-B
Sat 03:48:48 PM 33.7778 -117.5921 280° West 195 224 6,600  Level FlightAware ADS-B
Sat 03:48:56 PM 33.7800 -117.6060 281° West 192 221 6,600  Level FlightAware ADS-B
Sat 03:49:06 PM 33.7817 -117.6168 280° West 188 216 6,600 -300 Level FlightAware ADS-B
Sat 03:49:16 PM 33.7833 -117.6274 281° West 183 211 6,500 -353 Descending FlightAware ADS-B
Sat 03:49:23 PM 33.7838 -117.6306 281° West 183 211 6,500 -1,200 Level FlightAware ADS-B
Sat 03:49:31 PM 33.7858 -117.6430 281° West 184 212 6,200 -1,826 Descending FlightAware ADS-B
Sat 03:49:46 PM 33.7881 -117.6577 281° West 184 212 5,800 -1,412 Descending FlightAware ADS-B
Sat 03:49:48 PM 33.7884 -117.6593 281° West 184 212 5,800 -1,200 Level FlightAware ADS-B
Sat 03:50:01 PM 33.7906 -117.6728 282° West 182 209 5,500 -1,333 Descending FlightAware ADS-B
Sat 03:50:06 PM 33.7913 -117.6771 281° West 183 211 5,400 -1,600 Descending FlightAware ADS-B
Sat 03:50:16 PM 33.7929 -117.6866 282° West 180 207 5,100 -1,364 Descending FlightAware ADS-B
Sat 03:50:28 PM 33.7948 -117.6972 281° West 180 207 4,900 -1,600 Descending FlightAware ADS-B
Sat 03:50:31 PM 33.7953 -117.7030 275° West 179 206 4,700 -1,500 Descending FlightAware ADS-B
Sat 03:50:36 PM 33.7954 -117.7056 271° West 179 206 4,700 -1,200 Level FlightAware ADS-B
Sat 03:50:46 PM 33.7954 -117.7172 270° West 172 198 4,400 -2,000 Descending FlightAware ADS-B
Sat 03:50:51 PM 33.7955 -117.7219 270° West 167 192 4,200 -1,200 Descending FlightAware ADS-B
Sat 03:51:01 PM 33.7955 -117.7315 270° West 163 188 4,100 -800 Descending FlightAware ADS-B
Sat 03:51:06 PM 33.7954 -117.7332 270° West 159 183 4,000 -1,600 Descending FlightAware ADS-B
Sat 03:51:16 PM 33.7954 -117.7441 270° West 152 175 3,700 -1,500 Descending FlightAware ADS-B
Sat 03:51:26 PM 33.7948 -117.7523 262° West 147 169 3,500 -1,440 Descending FlightAware ADS-B
Sat 03:51:41 PM 33.7933 -117.7642 262° West 142 163 3,100 -1,111 Descending FlightAware ADS-B
Sat 03:51:53 PM 33.7922 -117.7731 262° West 130 150 3,000 -600 Descending FlightAware ADS-B
Sat 03:52:01 PM 33.7915 -117.7790 262° West 129 148 2,900 -1,333 Descending FlightAware ADS-B
Sat 03:52:11 PM 33.7904 -117.7858 256° West 131 151 2,600 -1,600 Descending FlightAware ADS-B
Sat 03:52:16 PM 33.7892 -117.7898 250° West 134 154 2,500 -1,600 Descending FlightAware ADS-B
Sat 03:52:26 PM 33.7869 -117.7963 244° Southwest 133 153 2,200 -1,600 Descending FlightAware ADS-B
Sat 03:52:31 PM 33.7855 -117.7986 232° Southwest 130 150 2,100 -1,000 Descending FlightAware ADS-B
Sat 03:52:32 PM 33.7848 -117.7995 225° Southwest 129 148 2,100  Level FlightAware ADS-B
Sat 03:52:36 PM 33.7827 -117.8013 215° Southwest 124 143 2,100 -667 Level FlightAware ADS-B
Sat 03:52:41 PM 33.7800 -117.8031 208° Southwest 118 136 2,000 -240 Descending FlightAware ADS-B
Sat 03:53:01 PM 33.7728 -117.8073 207° Southwest 105 121 2,000  Level FlightAware ADS-B
Sat 03:53:02 PM 33.7712 -117.8083 208° Southwest 107 123 2,000 -300 Level FlightAware ADS-B
Sat 03:53:21 PM 33.7621 -117.8141 209° Southwest 114 131 1,900 -387 Descending FlightAware ADS-B
Sat 03:53:33 PM 33.7573 -117.8173 210° Southwest 113 130 1,800 -400 Descending FlightAware ADS-B
Sat 03:53:36 PM 33.7545 -117.8190 208° Southwest 115 132 1,800 -667 Level FlightAware ADS-B
Sat 03:53:51 PM 33.7475 -117.8234 208° Southwest 119 137 1,600 -706 Descending FlightAware ADS-B
Sat 03:53:53 PM 33.7466 -117.8240 206° Southwest 119 137 1,600 -800 Level FlightAware ADS-B
Sat 03:54:06 PM 33.7404 -117.8278 208° Southwest 114 131 1,400 -857 Descending FlightAware ADS-B
Sat 03:54:21 PM 33.7331 -117.8322 206° Southwest 107 123 1,200 -783 Descending FlightAware ADS-B
Sat 03:54:29 PM 33.7317 -117.8330 207° Southwest 105 121 1,100 -400 Descending FlightAware ADS-B
Sat 03:54:36 PM 33.7269 -117.8361 210° Southwest 102 117 1,100 -522 Level FlightAware ADS-B
Sat 03:54:52 PM 33.7203 -117.8406 208° Southwest 106 122 900 -632 Descending FlightAware ADS-B
Sat 03:54:55 PM 33.7194 -117.8411 208° Southwest 105 121 900 -429 Level FlightAware ADS-B
Sat 03:55:06 PM 33.7142 -117.8445 209° Southwest 98 113 800 -462 Descending FlightAware ADS-B
Sat 03:55:21 PM 33.7080 -117.8483 206° Southwest 97 112 700 -480 Descending FlightAware ADS-B
Sat 03:55:31 PM 33.7058 -117.8497 206° Southwest 96 110 600 -800 Descending FlightAware ADS-B
Sat 03:55:36 PM 33.7020 -117.8519 209° Southwest 96 110 500 -600 Descending FlightAware ADS-B
Sat 03:55:51 PM 33.6959 -117.8560 209° Southwest 102 117 400 -400 Descending FlightAware ADS-B
Sat 03:56:06 PM 33.6895 -117.8600 209° Southwest 102 117 300 -462 Descending FlightAware ADS-B
Sat 03:56:17 PM 33.6850 -117.8630 208° Southwest 102 117 200 -97 Descending FlightAware ADS-B
Sat 03:57:08 PM 33.6664 -117.8744 208° Southwest 106 122 200  Level Los Angeles Center
Sat 03:59:00 PM 33.6667 -117.8667 132° Southeast  Level FlightAware Approximate

Login

Don't have an account? Register now (free) for customized features, flight alerts, and more!